MSC Orchestra — 3EJF3 — position and weather

sailwx.info

Track history (hours):
 
Tides and Currents Weather Stations Pressure Air Temp Water Temp Dewpoint Dewpoint Depression Visibility Wind Speed Wind Dir Waves Ship Positions

MSC Orchestra

Last reported at 2016-May-29 17:33 UTC. Time now 2016-May-31 02:09 UTC.
Position N 45°07' E 012°59'.

Length 292 m; draft 7.8 m.

Type: Ship. MMSI: 372497000.

Date/timePositionNaut miles runAvg speedWind from/ knotsBaromVisibWave heightAir tempDewpointWater temp
2016-May-29 17:33N 45°07' E 012°59'2520.6
2016-May-29 16:19N 45°23' E 012°31'7 9.7
2016-May-29 15:33N 45°26' E 012°21'2 1.8
2016-May-29 14:33N 45°26' E 012°19'0 0.0
2016-May-29 13:33N 45°26' E 012°19'0 0.0
2016-May-29 12:32N 45°26' E 012°19'0 0.0
2016-May-29 11:32N 45°26' E 012°19'0 0.0
2016-May-29 10:32N 45°26' E 012°19'0 0.0
2016-May-29 09:31N 45°26' E 012°19'0 0.0
2016-May-29 08:31N 45°26' E 012°19'0 0.0
2016-May-29 07:33N 45°26' E 012°19'0 0.4
2016-May-29 06:33N 45°26' E 012°19'6 6.0
2016-May-29 05:34N 45°25' E 012°27'1615.9
2016-May-29 04:34N 45°16' E 012°46'1717.0
2016-May-29 03:33N 45°05' E 013°04'1818.4
2016-May-29 02:33N 44°53' E 013°25'2020.3
2016-May-29 01:34N 44°37' E 013°42'2120.5
2016-May-29 00:33N 44°20' E 013°57'10120.2
2016-May-28 19:33N 43°06' E 015°32'13919.8
2016-May-28 12:33N 42°26' E 018°33'8 7.9
2016-May-28 11:33N 42°29' E 018°43'3 3.1
2016-May-28 10:31N 42°26' E 018°46'0 0.0
2016-May-28 09:28N 42°26' E 018°46'0 0.0
2016-May-28 08:33N 42°26' E 018°46'0 0.0
2016-May-28 07:33N 42°26' E 018°46'0 0.0
2016-May-28 06:32N 42°26' E 018°46'0 0.0
2016-May-28 05:29N 42°26' E 018°46'0 0.1
2016-May-28 04:33N 42°26' E 018°46'4 4.5
2016-May-28 03:33N 42°27' E 018°40'7 6.7
2016-May-28 02:33N 42°22' E 018°34'1515.1
2016-May-28 01:33N 42°07' E 018°39'1615.8
2016-May-28 00:33N 41°51' E 018°43'1717.2
2016-May-27 23:33N 41°35' E 018°48'36012.0
2016-May-26 17:32N 36°47' E 023°26'2121.2
2016-May-26 16:33N 37°07' E 023°34'2121.2
2016-May-26 15:33N 37°28' E 023°39'2020.2
2016-May-26 14:33N 37°48' E 023°37'9 8.7
2016-May-26 13:33N 37°56' E 023°38'0 0.0
2016-May-26 12:33N 37°56' E 023°38'0 0.0
2016-May-26 11:32N 37°56' E 023°38'0 0.0
2016-May-26 10:32N 37°56' E 023°38'0 0.0
2016-May-26 09:31N 37°56' E 023°38'0 0.0
2016-May-26 08:31N 37°56' E 023°38'0 0.0
2016-May-26 07:33N 37°56' E 023°38'0 0.0
2016-May-26 06:33N 37°56' E 023°38'0 0.0
2016-May-26 05:33N 37°56' E 023°38'0 0.0
2016-May-26 04:32N 37°56' E 023°38'2 1.7
2016-May-26 03:34N 37°55' E 023°37'8 8.0
2016-May-26 02:33N 37°48' E 023°41'1010.3
2016-May-26 01:33N 37°38' E 023°46'1010.1
2016-May-26 00:33N 37°28' E 023°48'10 9.9
2016-May-25 23:32N 37°19' E 023°52'  
2016-May-21 12:33N 42°23' E 018°33'8 8.4
2016-May-21 11:33N 42°29' E 018°41'4 4.2
2016-May-21 10:31N 42°26' E 018°46'0 0.0
2016-May-21 09:31N 42°26' E 018°46'0 0.0
2016-May-21 08:33N 42°26' E 018°46'0 0.1
2016-May-21 07:33N 42°26' E 018°46'0 0.1
2016-May-21 06:33N 42°26' E 018°46'  
Track history (hours):
 
Tides and Currents Weather Stations Pressure Air Temp Water Temp Dewpoint Dewpoint Depression Visibility Wind Speed Wind Dir Waves Ship Positions

MSC Orchestra

Last reported at 2016-May-29 17:33 UTC. Time now 2016-May-31 02:09 UTC.
Position N 45°07' E 012°59'.

Length 292 m; draft 7.8 m.

Type: Ship. MMSI: 372497000.

Date/timePositionNaut miles runAvg speedWind from/ knotsBaromVisibWave heightAir tempDewpointWater temp
2016-May-29 17:33N 45°07' E 012°59'2520.6
2016-May-29 16:19N 45°23' E 012°31'7 9.7
2016-May-29 15:33N 45°26' E 012°21'2 1.8
2016-May-29 14:33N 45°26' E 012°19'0 0.0
2016-May-29 13:33N 45°26' E 012°19'0 0.0
2016-May-29 12:32N 45°26' E 012°19'0 0.0
2016-May-29 11:32N 45°26' E 012°19'0 0.0
2016-May-29 10:32N 45°26' E 012°19'0 0.0
2016-May-29 09:31N 45°26' E 012°19'0 0.0
2016-May-29 08:31N 45°26' E 012°19'0 0.0
2016-May-29 07:33N 45°26' E 012°19'0 0.4
2016-May-29 06:33N 45°26' E 012°19'6 6.0
2016-May-29 05:34N 45°25' E 012°27'1615.9
2016-May-29 04:34N 45°16' E 012°46'1717.0
2016-May-29 03:33N 45°05' E 013°04'1818.4
2016-May-29 02:33N 44°53' E 013°25'2020.3
2016-May-29 01:34N 44°37' E 013°42'2120.5
2016-May-29 00:33N 44°20' E 013°57'10120.2
2016-May-28 19:33N 43°06' E 015°32'13919.8
2016-May-28 12:33N 42°26' E 018°33'8 7.9
2016-May-28 11:33N 42°29' E 018°43'3 3.1
2016-May-28 10:31N 42°26' E 018°46'0 0.0
2016-May-28 09:28N 42°26' E 018°46'0 0.0
2016-May-28 08:33N 42°26' E 018°46'0 0.0
2016-May-28 07:33N 42°26' E 018°46'0 0.0
2016-May-28 06:32N 42°26' E 018°46'0 0.0
2016-May-28 05:29N 42°26' E 018°46'0 0.1
2016-May-28 04:33N 42°26' E 018°46'4 4.5
2016-May-28 03:33N 42°27' E 018°40'7 6.7
2016-May-28 02:33N 42°22' E 018°34'1515.1
2016-May-28 01:33N 42°07' E 018°39'1615.8
2016-May-28 00:33N 41°51' E 018°43'1717.2
2016-May-27 23:33N 41°35' E 018°48'36012.0
2016-May-26 17:32N 36°47' E 023°26'2121.2
2016-May-26 16:33N 37°07' E 023°34'2121.2
2016-May-26 15:33N 37°28' E 023°39'2020.2
2016-May-26 14:33N 37°48' E 023°37'9 8.7
2016-May-26 13:33N 37°56' E 023°38'0 0.0
2016-May-26 12:33N 37°56' E 023°38'0 0.0
2016-May-26 11:32N 37°56' E 023°38'0 0.0
2016-May-26 10:32N 37°56' E 023°38'0 0.0
2016-May-26 09:31N 37°56' E 023°38'0 0.0
2016-May-26 08:31N 37°56' E 023°38'0 0.0
2016-May-26 07:33N 37°56' E 023°38'0 0.0
2016-May-26 06:33N 37°56' E 023°38'0 0.0
2016-May-26 05:33N 37°56' E 023°38'0 0.0
2016-May-26 04:32N 37°56' E 023°38'2 1.7
2016-May-26 03:34N 37°55' E 023°37'8 8.0
2016-May-26 02:33N 37°48' E 023°41'1010.3
2016-May-26 01:33N 37°38' E 023°46'1010.1
2016-May-26 00:33N 37°28' E 023°48'10 9.9
2016-May-25 23:32N 37°19' E 023°52'  
2016-May-21 12:33N 42°23' E 018°33'8 8.4
2016-May-21 11:33N 42°29' E 018°41'4 4.2
2016-May-21 10:31N 42°26' E 018°46'0 0.0
2016-May-21 09:31N 42°26' E 018°46'0 0.0
2016-May-21 08:33N 42°26' E 018°46'0 0.1
2016-May-21 07:33N 42°26' E 018°46'0 0.1
2016-May-21 06:33N 42°26' E 018°46'  

Dump ship's entire track history